sensor_id;sensor_type;location;lat;lon;timestamp;temperature;humidity
72604;DHT22;60645;56.968;24.196;2024-03-06T00:01:56;-0.80;84.30
72604;DHT22;60645;56.968;24.196;2024-03-06T00:04:23;-0.80;84.40
72604;DHT22;60645;56.968;24.196;2024-03-06T00:06:50;-1.00;84.40
72604;DHT22;60645;56.968;24.196;2024-03-06T00:09:19;-1.00;84.60
72604;DHT22;60645;56.968;24.196;2024-03-06T00:11:46;-1.00;84.80
72604;DHT22;60645;56.968;24.196;2024-03-06T00:14:13;-1.00;84.70
72604;DHT22;60645;56.968;24.196;2024-03-06T00:16:40;-1.10;84.60
72604;DHT22;60645;56.968;24.196;2024-03-06T00:19:07;-0.90;85.00
72604;DHT22;60645;56.968;24.196;2024-03-06T00:21:34;-1.10;84.50
72604;DHT22;60645;56.968;24.196;2024-03-06T00:24:02;-0.90;84.60
72604;DHT22;60645;56.968;24.196;2024-03-06T00:26:30;-1.00;84.50
72604;DHT22;60645;56.968;24.196;2024-03-06T00:28:57;-1.10;84.60
72604;DHT22;60645;56.968;24.196;2024-03-06T00:31:24;-1.10;84.60
72604;DHT22;60645;56.968;24.196;2024-03-06T00:33:51;-1.30;84.70
72604;DHT22;60645;56.968;24.196;2024-03-06T00:36:18;-1.30;84.50
72604;DHT22;60645;56.968;24.196;2024-03-06T00:38:45;-1.10;84.50
72604;DHT22;60645;56.968;24.196;2024-03-06T00:41:12;-1.30;84.20
72604;DHT22;60645;56.968;24.196;2024-03-06T00:43:39;-1.20;84.40
72604;DHT22;60645;56.968;24.196;2024-03-06T00:46:06;-1.10;84.30
72604;DHT22;60645;56.968;24.196;2024-03-06T00:48:33;-1.20;84.30
72604;DHT22;60645;56.968;24.196;2024-03-06T00:51:00;-1.10;84.40
72604;DHT22;60645;56.968;24.196;2024-03-06T00:53:26;-1.20;84.70
72604;DHT22;60645;56.968;24.196;2024-03-06T00:55:53;-1.30;84.70
72604;DHT22;60645;56.968;24.196;2024-03-06T00:58:20;-1.40;84.80
72604;DHT22;60645;56.968;24.196;2024-03-06T01:00:47;-1.40;84.90
72604;DHT22;60645;56.968;24.196;2024-03-06T01:03:14;-1.40;84.80
72604;DHT22;60645;56.968;24.196;2024-03-06T01:05:41;-1.40;85.10
72604;DHT22;60645;56.968;24.196;2024-03-06T01:08:07;-1.30;85.00
72604;DHT22;60645;56.968;24.196;2024-03-06T01:10:34;-1.50;85.10
72604;DHT22;60645;56.968;24.196;2024-03-06T01:13:02;-1.50;85.00
72604;DHT22;60645;56.968;24.196;2024-03-06T01:15:29;-1.40;85.10
72604;DHT22;60645;56.968;24.196;2024-03-06T01:17:56;-1.40;84.90
72604;DHT22;60645;56.968;24.196;2024-03-06T01:20:24;-1.30;85.10
72604;DHT22;60645;56.968;24.196;2024-03-06T01:22:51;-1.60;84.80
72604;DHT22;60645;56.968;24.196;2024-03-06T01:25:18;-1.50;84.90
72604;DHT22;60645;56.968;24.196;2024-03-06T01:27:45;-1.60;84.90
72604;DHT22;60645;56.968;24.196;2024-03-06T01:30:12;-1.60;85.00
72604;DHT22;60645;56.968;24.196;2024-03-06T01:32:38;-1.50;85.10
72604;DHT22;60645;56.968;24.196;2024-03-06T01:35:05;-1.50;84.80
72604;DHT22;60645;56.968;24.196;2024-03-06T01:37:33;-1.50;84.90
72604;DHT22;60645;56.968;24.196;2024-03-06T01:40:00;-1.60;84.60
72604;DHT22;60645;56.968;24.196;2024-03-06T01:42:27;-1.60;84.90
72604;DHT22;60645;56.968;24.196;2024-03-06T01:44:55;-1.60;84.80
72604;DHT22;60645;56.968;24.196;2024-03-06T01:47:22;-1.70;84.90
72604;DHT22;60645;56.968;24.196;2024-03-06T01:49:49;-1.60;84.70
72604;DHT22;60645;56.968;24.196;2024-03-06T01:52:16;-1.80;84.70
72604;DHT22;60645;56.968;24.196;2024-03-06T01:54:44;-1.70;85.00
72604;DHT22;60645;56.968;24.196;2024-03-06T01:57:11;-1.50;84.90
72604;DHT22;60645;56.968;24.196;2024-03-06T01:59:41;-1.50;84.90
72604;DHT22;60645;56.968;24.196;2024-03-06T02:02:08;-1.60;84.60
72604;DHT22;60645;56.968;24.196;2024-03-06T02:04:38;-1.40;84.70
72604;DHT22;60645;56.968;24.196;2024-03-06T02:07:08;-1.70;84.80
72604;DHT22;60645;56.968;24.196;2024-03-06T02:09:37;-1.60;85.00
72604;DHT22;60645;56.968;24.196;2024-03-06T02:12:05;-1.60;84.60
72604;DHT22;60645;56.968;24.196;2024-03-06T02:14:31;-1.70;84.70
72604;DHT22;60645;56.968;24.196;2024-03-06T02:16:58;-1.80;85.00
72604;DHT22;60645;56.968;24.196;2024-03-06T02:19:36;-1.80;84.70
72604;DHT22;60645;56.968;24.196;2024-03-06T02:22:03;-1.80;84.70
72604;DHT22;60645;56.968;24.196;2024-03-06T02:24:30;-1.80;84.80
72604;DHT22;60645;56.968;24.196;2024-03-06T02:26:57;-1.80;84.80
72604;DHT22;60645;56.968;24.196;2024-03-06T02:29:24;-1.70;85.00
72604;DHT22;60645;56.968;24.196;2024-03-06T02:31:50;-1.90;85.10
72604;DHT22;60645;56.968;24.196;2024-03-06T02:34:17;-1.90;85.30
72604;DHT22;60645;56.968;24.196;2024-03-06T02:36:44;-1.70;85.10
72604;DHT22;60645;56.968;24.196;2024-03-06T02:39:11;-1.80;85.20
72604;DHT22;60645;56.968;24.196;2024-03-06T02:41:38;-1.90;85.20
72604;DHT22;60645;56.968;24.196;2024-03-06T02:44:04;-1.70;85.20
72604;DHT22;60645;56.968;24.196;2024-03-06T02:46:32;-1.70;85.20
72604;DHT22;60645;56.968;24.196;2024-03-06T02:48:59;-1.80;85.10
72604;DHT22;60645;56.968;24.196;2024-03-06T02:51:25;-1.90;85.00
72604;DHT22;60645;56.968;24.196;2024-03-06T02:53:52;-1.80;85.10
72604;DHT22;60645;56.968;24.196;2024-03-06T02:56:19;-1.70;85.10
72604;DHT22;60645;56.968;24.196;2024-03-06T02:58:46;-1.90;85.30
72604;DHT22;60645;56.968;24.196;2024-03-06T03:01:13;-1.80;85.20
72604;DHT22;60645;56.968;24.196;2024-03-06T03:03:41;-1.70;84.90
72604;DHT22;60645;56.968;24.196;2024-03-06T03:06:08;-1.90;84.90
72604;DHT22;60645;56.968;24.196;2024-03-06T03:08:36;-1.90;84.90
72604;DHT22;60645;56.968;24.196;2024-03-06T03:11:03;-1.80;85.20
72604;DHT22;60645;56.968;24.196;2024-03-06T03:13:30;-1.90;85.10
72604;DHT22;60645;56.968;24.196;2024-03-06T03:15:57;-1.80;85.30
72604;DHT22;60645;56.968;24.196;2024-03-06T03:18:24;-1.90;85.40
72604;DHT22;60645;56.968;24.196;2024-03-06T03:20:51;-1.70;85.20
72604;DHT22;60645;56.968;24.196;2024-03-06T03:23:18;-1.70;85.20
72604;DHT22;60645;56.968;24.196;2024-03-06T03:25:48;-2.00;85.60
72604;DHT22;60645;56.968;24.196;2024-03-06T03:28:15;-1.80;85.30
72604;DHT22;60645;56.968;24.196;2024-03-06T03:30:43;-1.70;85.80
72604;DHT22;60645;56.968;24.196;2024-03-06T03:33:10;-2.00;85.40
72604;DHT22;60645;56.968;24.196;2024-03-06T03:35:37;-1.90;85.80
72604;DHT22;60645;56.968;24.196;2024-03-06T03:38:04;-2.00;85.80
72604;DHT22;60645;56.968;24.196;2024-03-06T03:40:31;-1.90;85.80
72604;DHT22;60645;56.968;24.196;2024-03-06T03:42:59;-1.90;85.70
72604;DHT22;60645;56.968;24.196;2024-03-06T03:45:33;-2.00;85.30
72604;DHT22;60645;56.968;24.196;2024-03-06T03:48:01;-2.00;85.60
72604;DHT22;60645;56.968;24.196;2024-03-06T03:50:29;-2.10;85.60
72604;DHT22;60645;56.968;24.196;2024-03-06T03:52:57;-2.10;85.60
72604;DHT22;60645;56.968;24.196;2024-03-06T03:55:28;-1.90;85.80
72604;DHT22;60645;56.968;24.196;2024-03-06T03:57:54;-2.10;85.70
72604;DHT22;60645;56.968;24.196;2024-03-06T04:00:21;-1.90;85.70
72604;DHT22;60645;56.968;24.196;2024-03-06T04:02:49;-2.20;85.60
72604;DHT22;60645;56.968;24.196;2024-03-06T04:05:16;-2.00;86.00
72604;DHT22;60645;56.968;24.196;2024-03-06T04:07:43;-2.20;85.90
72604;DHT22;60645;56.968;24.196;2024-03-06T04:10:10;-2.10;86.10
72604;DHT22;60645;56.968;24.196;2024-03-06T04:12:38;-2.30;86.30
72604;DHT22;60645;56.968;24.196;2024-03-06T04:15:06;-2.20;86.30
72604;DHT22;60645;56.968;24.196;2024-03-06T04:17:34;-2.30;86.20
72604;DHT22;60645;56.968;24.196;2024-03-06T04:20:02;-2.20;86.20
72604;DHT22;60645;56.968;24.196;2024-03-06T04:22:30;-2.30;86.20
72604;DHT22;60645;56.968;24.196;2024-03-06T04:24:57;-2.20;86.20
72604;DHT22;60645;56.968;24.196;2024-03-06T04:27:25;-2.20;86.30
72604;DHT22;60645;56.968;24.196;2024-03-06T04:29:52;-2.30;86.20
72604;DHT22;60645;56.968;24.196;2024-03-06T04:32:19;-2.30;86.40
72604;DHT22;60645;56.968;24.196;2024-03-06T04:34:46;-2.20;86.10
72604;DHT22;60645;56.968;24.196;2024-03-06T04:37:13;-2.20;86.30
72604;DHT22;60645;56.968;24.196;2024-03-06T04:39:40;-2.40;86.60
72604;DHT22;60645;56.968;24.196;2024-03-06T04:42:07;-2.30;86.90
72604;DHT22;60645;56.968;24.196;2024-03-06T04:44:34;-2.30;86.80
72604;DHT22;60645;56.968;24.196;2024-03-06T04:47:01;-2.50;86.90
72604;DHT22;60645;56.968;24.196;2024-03-06T04:49:28;-2.40;86.90
72604;DHT22;60645;56.968;24.196;2024-03-06T04:51:55;-2.50;86.90
72604;DHT22;60645;56.968;24.196;2024-03-06T04:54:22;-2.40;87.10
72604;DHT22;60645;56.968;24.196;2024-03-06T04:56:49;-2.40;86.80
72604;DHT22;60645;56.968;24.196;2024-03-06T04:59:15;-2.50;87.00
72604;DHT22;60645;56.968;24.196;2024-03-06T05:01:42;-2.40;87.10
72604;DHT22;60645;56.968;24.196;2024-03-06T05:04:10;-2.50;87.00
72604;DHT22;60645;56.968;24.196;2024-03-06T05:06:55;-2.30;87.10
72604;DHT22;60645;56.968;24.196;2024-03-06T05:09:40;-2.40;86.90
72604;DHT22;60645;56.968;24.196;2024-03-06T05:12:25;-2.40;86.80
72604;DHT22;60645;56.968;24.196;2024-03-06T05:15:10;-2.50;86.70
72604;DHT22;60645;56.968;24.196;2024-03-06T05:17:54;-2.50;86.80
72604;DHT22;60645;56.968;24.196;2024-03-06T05:20:39;-2.20;86.50
72604;DHT22;60645;56.968;24.196;2024-03-06T05:23:23;-2.20;86.60
72604;DHT22;60645;56.968;24.196;2024-03-06T05:26:08;-1.80;85.60
72604;DHT22;60645;56.968;24.196;2024-03-06T05:28:52;-1.60;84.30
72604;DHT22;60645;56.968;24.196;2024-03-06T05:31:36;-1.30;83.50
72604;DHT22;60645;56.968;24.196;2024-03-06T05:34:21;-1.00;82.40
72604;DHT22;60645;56.968;24.196;2024-03-06T05:37:06;-0.60;81.30
72604;DHT22;60645;56.968;24.196;2024-03-06T05:39:50;-0.40;80.40
72604;DHT22;60645;56.968;24.196;2024-03-06T05:42:34;-0.20;79.60
72604;DHT22;60645;56.968;24.196;2024-03-06T05:45:19;0.00;78.70
72604;DHT22;60645;56.968;24.196;2024-03-06T05:48:03;0.40;78.10
72604;DHT22;60645;56.968;24.196;2024-03-06T05:50:48;0.70;76.90
72604;DHT22;60645;56.968;24.196;2024-03-06T05:53:35;1.10;75.10
72604;DHT22;60645;56.968;24.196;2024-03-06T05:56:19;1.10;75.40
72604;DHT22;60645;56.968;24.196;2024-03-06T05:59:04;1.50;73.40
72604;DHT22;60645;56.968;24.196;2024-03-06T06:01:34;1.70;72.00
72604;DHT22;60645;56.968;24.196;2024-03-06T06:04:01;2.00;71.90
72604;DHT22;60645;56.968;24.196;2024-03-06T06:06:33;2.30;70.10
72604;DHT22;60645;56.968;24.196;2024-03-06T06:09:00;2.10;70.40
72604;DHT22;60645;56.968;24.196;2024-03-06T06:11:27;2.40;69.60
72604;DHT22;60645;56.968;24.196;2024-03-06T06:13:54;2.60;68.40
72604;DHT22;60645;56.968;24.196;2024-03-06T06:16:21;2.90;67.80
72604;DHT22;60645;56.968;24.196;2024-03-06T06:18:48;3.20;66.80
72604;DHT22;60645;56.968;24.196;2024-03-06T06:21:15;3.60;65.40
72604;DHT22;60645;56.968;24.196;2024-03-06T06:23:42;3.60;65.50
72604;DHT22;60645;56.968;24.196;2024-03-06T06:26:09;3.70;65.70
72604;DHT22;60645;56.968;24.196;2024-03-06T06:28:37;4.10;63.80
72604;DHT22;60645;56.968;24.196;2024-03-06T06:31:04;4.00;64.10
72604;DHT22;60645;56.968;24.196;2024-03-06T06:33:31;3.80;63.30
72604;DHT22;60645;56.968;24.196;2024-03-06T06:35:57;4.20;63.70
72604;DHT22;60645;56.968;24.196;2024-03-06T06:38:24;4.30;62.40
72604;DHT22;60645;56.968;24.196;2024-03-06T06:40:51;4.40;62.80
72604;DHT22;60645;56.968;24.196;2024-03-06T06:43:19;4.60;61.10
72604;DHT22;60645;56.968;24.196;2024-03-06T06:45:45;4.60;61.50
72604;DHT22;60645;56.968;24.196;2024-03-06T06:48:12;4.70;61.60
72604;DHT22;60645;56.968;24.196;2024-03-06T06:50:39;4.70;61.10
72604;DHT22;60645;56.968;24.196;2024-03-06T06:53:06;4.80;60.60
72604;DHT22;60645;56.968;24.196;2024-03-06T06:55:33;5.50;59.30
72604;DHT22;60645;56.968;24.196;2024-03-06T06:58:00;5.70;58.90
72604;DHT22;60645;56.968;24.196;2024-03-06T07:00:27;5.50;57.70
72604;DHT22;60645;56.968;24.196;2024-03-06T07:02:55;5.20;59.50
72604;DHT22;60645;56.968;24.196;2024-03-06T07:05:25;5.70;58.00
72604;DHT22;60645;56.968;24.196;2024-03-06T07:07:53;5.50;59.00
72604;DHT22;60645;56.968;24.196;2024-03-06T07:10:20;5.20;58.80
72604;DHT22;60645;56.968;24.196;2024-03-06T07:12:47;5.30;58.70
72604;DHT22;60645;56.968;24.196;2024-03-06T07:15:14;5.50;58.00
72604;DHT22;60645;56.968;24.196;2024-03-06T07:17:41;5.80;57.90
72604;DHT22;60645;56.968;24.196;2024-03-06T07:20:08;5.30;58.90
72604;DHT22;60645;56.968;24.196;2024-03-06T07:22:35;4.90;59.40
72604;DHT22;60645;56.968;24.196;2024-03-06T07:25:02;4.70;60.20
72604;DHT22;60645;56.968;24.196;2024-03-06T07:27:29;4.70;60.30
72604;DHT22;60645;56.968;24.196;2024-03-06T07:29:56;4.60;60.20
72604;DHT22;60645;56.968;24.196;2024-03-06T07:32:23;5.10;59.50
72604;DHT22;60645;56.968;24.196;2024-03-06T07:34:50;5.10;59.20
72604;DHT22;60645;56.968;24.196;2024-03-06T07:37:17;5.50;59.10
72604;DHT22;60645;56.968;24.196;2024-03-06T07:39:43;5.50;58.00
72604;DHT22;60645;56.968;24.196;2024-03-06T07:42:10;5.50;58.50
72604;DHT22;60645;56.968;24.196;2024-03-06T07:44:37;5.20;59.30
72604;DHT22;60645;56.968;24.196;2024-03-06T07:47:05;5.40;58.40
72604;DHT22;60645;56.968;24.196;2024-03-06T07:49:31;5.60;58.50
72604;DHT22;60645;56.968;24.196;2024-03-06T07:51:58;5.90;57.50
72604;DHT22;60645;56.968;24.196;2024-03-06T07:54:25;6.00;56.90
72604;DHT22;60645;56.968;24.196;2024-03-06T07:56:52;5.90;57.10
72604;DHT22;60645;56.968;24.196;2024-03-06T07:59:20;6.30;56.30
72604;DHT22;60645;56.968;24.196;2024-03-06T08:01:47;6.10;56.30
72604;DHT22;60645;56.968;24.196;2024-03-06T08:04:15;6.50;55.80
72604;DHT22;60645;56.968;24.196;2024-03-06T08:06:42;6.50;56.00
72604;DHT22;60645;56.968;24.196;2024-03-06T08:09:09;6.40;56.20
72604;DHT22;60645;56.968;24.196;2024-03-06T08:11:36;6.80;55.00
72604;DHT22;60645;56.968;24.196;2024-03-06T08:14:03;7.10;53.70
72604;DHT22;60645;56.968;24.196;2024-03-06T08:16:31;7.50;53.20
72604;DHT22;60645;56.968;24.196;2024-03-06T08:19:02;8.20;51.80
72604;DHT22;60645;56.968;24.196;2024-03-06T08:21:29;8.20;52.10
72604;DHT22;60645;56.968;24.196;2024-03-06T08:23:56;8.20;51.30
72604;DHT22;60645;56.968;24.196;2024-03-06T08:26:23;8.30;51.10
72604;DHT22;60645;56.968;24.196;2024-03-06T08:28:50;8.20;51.70
72604;DHT22;60645;56.968;24.196;2024-03-06T08:31:18;7.70;51.70
72604;DHT22;60645;56.968;24.196;2024-03-06T08:33:45;8.40;51.50
72604;DHT22;60645;56.968;24.196;2024-03-06T08:36:12;9.90;48.70
72604;DHT22;60645;56.968;24.196;2024-03-06T08:38:40;10.10;48.00
72604;DHT22;60645;56.968;24.196;2024-03-06T08:41:10;10.40;47.20
72604;DHT22;60645;56.968;24.196;2024-03-06T08:43:37;10.70;46.40
72604;DHT22;60645;56.968;24.196;2024-03-06T08:46:04;11.20;45.70
72604;DHT22;60645;56.968;24.196;2024-03-06T08:48:30;10.90;45.80
72604;DHT22;60645;56.968;24.196;2024-03-06T08:50:57;10.40;46.80
72604;DHT22;60645;56.968;24.196;2024-03-06T08:53:24;10.30;46.30
72604;DHT22;60645;56.968;24.196;2024-03-06T08:55:51;10.20;47.50
72604;DHT22;60645;56.968;24.196;2024-03-06T08:58:18;10.80;46.60
72604;DHT22;60645;56.968;24.196;2024-03-06T09:00:47;11.70;44.70
72604;DHT22;60645;56.968;24.196;2024-03-06T09:03:15;12.10;45.00
72604;DHT22;60645;56.968;24.196;2024-03-06T09:05:42;12.40;43.30
72604;DHT22;60645;56.968;24.196;2024-03-06T09:08:09;12.20;43.80
72604;DHT22;60645;56.968;24.196;2024-03-06T09:10:37;12.40;43.90
72604;DHT22;60645;56.968;24.196;2024-03-06T09:13:04;12.60;42.90
72604;DHT22;60645;56.968;24.196;2024-03-06T09:15:31;12.00;43.60
72604;DHT22;60645;56.968;24.196;2024-03-06T09:17:58;12.60;43.70
72604;DHT22;60645;56.968;24.196;2024-03-06T09:20:25;13.40;42.10
72604;DHT22;60645;56.968;24.196;2024-03-06T09:22:52;13.80;40.90
72604;DHT22;60645;56.968;24.196;2024-03-06T09:25:23;13.30;41.70
72604;DHT22;60645;56.968;24.196;2024-03-06T09:27:55;13.50;41.30
72604;DHT22;60645;56.968;24.196;2024-03-06T09:30:22;13.60;41.40
72604;DHT22;60645;56.968;24.196;2024-03-06T09:32:49;14.10;40.30
72604;DHT22;60645;56.968;24.196;2024-03-06T09:35:16;14.30;40.20
72604;DHT22;60645;56.968;24.196;2024-03-06T09:37:44;14.20;39.80
72604;DHT22;60645;56.968;24.196;2024-03-06T09:40:19;13.30;40.80
72604;DHT22;60645;56.968;24.196;2024-03-06T09:42:46;13.80;40.50
72604;DHT22;60645;56.968;24.196;2024-03-06T09:45:13;12.90;41.20
72604;DHT22;60645;56.968;24.196;2024-03-06T09:47:40;12.80;41.40
72604;DHT22;60645;56.968;24.196;2024-03-06T09:50:08;13.60;40.60
72604;DHT22;60645;56.968;24.196;2024-03-06T09:52:36;15.00;39.30
72604;DHT22;60645;56.968;24.196;2024-03-06T09:55:03;14.90;39.10
72604;DHT22;60645;56.968;24.196;2024-03-06T09:57:30;14.70;39.10
72604;DHT22;60645;56.968;24.196;2024-03-06T09:59:57;14.20;39.60
72604;DHT22;60645;56.968;24.196;2024-03-06T10:04:50;15.10;39.10
72604;DHT22;60645;56.968;24.196;2024-03-06T10:07:17;14.30;39.60
72604;DHT22;60645;56.968;24.196;2024-03-06T10:09:46;12.60;41.40
72604;DHT22;60645;56.968;24.196;2024-03-06T10:12:16;9.80;44.50
72604;DHT22;60645;56.968;24.196;2024-03-06T10:14:52;7.60;49.10
72604;DHT22;60645;56.968;24.196;2024-03-06T10:17:20;6.40;51.30
72604;DHT22;60645;56.968;24.196;2024-03-06T10:19:50;5.80;53.40
72604;DHT22;60645;56.968;24.196;2024-03-06T10:22:19;5.50;54.50
72604;DHT22;60645;56.968;24.196;2024-03-06T10:24:46;6.80;51.60
72604;DHT22;60645;56.968;24.196;2024-03-06T10:27:16;9.20;47.30
72604;DHT22;60645;56.968;24.196;2024-03-06T10:29:46;10.30;44.90
72604;DHT22;60645;56.968;24.196;2024-03-06T10:32:30;9.90;44.90
72604;DHT22;60645;56.968;24.196;2024-03-06T10:34:57;8.40;47.30
72604;DHT22;60645;56.968;24.196;2024-03-06T10:37:24;7.80;49.10
72604;DHT22;60645;56.968;24.196;2024-03-06T10:39:51;6.80;50.20
72604;DHT22;60645;56.968;24.196;2024-03-06T10:42:19;6.20;51.70
72604;DHT22;60645;56.968;24.196;2024-03-06T10:44:53;6.00;52.40
72604;DHT22;60645;56.968;24.196;2024-03-06T10:47:21;6.00;52.60
72604;DHT22;60645;56.968;24.196;2024-03-06T10:49:50;5.40;53.00
72604;DHT22;60645;56.968;24.196;2024-03-06T10:52:18;5.00;53.60
72604;DHT22;60645;56.968;24.196;2024-03-06T10:54:45;5.00;54.20
72604;DHT22;60645;56.968;24.196;2024-03-06T10:57:13;4.90;54.50
72604;DHT22;60645;56.968;24.196;2024-03-06T10:59:40;4.60;54.70
72604;DHT22;60645;56.968;24.196;2024-03-06T11:02:09;4.50;55.30
72604;DHT22;60645;56.968;24.196;2024-03-06T11:04:36;4.50;55.30
72604;DHT22;60645;56.968;24.196;2024-03-06T11:07:07;4.80;55.30
72604;DHT22;60645;56.968;24.196;2024-03-06T11:09:39;4.60;55.40
72604;DHT22;60645;56.968;24.196;2024-03-06T11:12:06;4.90;55.20
72604;DHT22;60645;56.968;24.196;2024-03-06T11:14:37;4.80;54.50
72604;DHT22;60645;56.968;24.196;2024-03-06T11:17:06;4.90;54.30
72604;DHT22;60645;56.968;24.196;2024-03-06T11:22:40;4.90;54.60
72604;DHT22;60645;56.968;24.196;2024-03-06T11:25:06;5.10;53.40
72604;DHT22;60645;56.968;24.196;2024-03-06T11:28:01;5.40;52.70
72604;DHT22;60645;56.968;24.196;2024-03-06T11:30:21;5.50;52.60
72604;DHT22;60645;56.968;24.196;2024-03-06T11:32:58;5.80;52.10
72604;DHT22;60645;56.968;24.196;2024-03-06T11:35:27;5.80;51.00
72604;DHT22;60645;56.968;24.196;2024-03-06T11:37:54;5.40;51.20
72604;DHT22;60645;56.968;24.196;2024-03-06T11:40:24;5.10;51.80
72604;DHT22;60645;56.968;24.196;2024-03-06T11:42:51;5.10;51.80
72604;DHT22;60645;56.968;24.196;2024-03-06T11:45:19;5.10;51.40
72604;DHT22;60645;56.968;24.196;2024-03-06T11:50:25;5.30;51.20
72604;DHT22;60645;56.968;24.196;2024-03-06T11:52:52;5.30;51.30
72604;DHT22;60645;56.968;24.196;2024-03-06T11:55:19;5.50;51.10
72604;DHT22;60645;56.968;24.196;2024-03-06T11:57:46;5.20;51.00
72604;DHT22;60645;56.968;24.196;2024-03-06T12:00:13;5.40;50.90
72604;DHT22;60645;56.968;24.196;2024-03-06T12:02:41;5.40;50.80
72604;DHT22;60645;56.968;24.196;2024-03-06T12:05:09;5.50;50.00
72604;DHT22;60645;56.968;24.196;2024-03-06T12:07:46;5.60;50.10
72604;DHT22;60645;56.968;24.196;2024-03-06T12:10:14;5.80;50.00
72604;DHT22;60645;56.968;24.196;2024-03-06T12:12:40;5.40;50.60
72604;DHT22;60645;56.968;24.196;2024-03-06T12:15:11;5.50;49.70
72604;DHT22;60645;56.968;24.196;2024-03-06T12:17:45;5.40;49.70
72604;DHT22;60645;56.968;24.196;2024-03-06T12:20:18;5.10;49.90
72604;DHT22;60645;56.968;24.196;2024-03-06T12:22:49;5.50;49.40
72604;DHT22;60645;56.968;24.196;2024-03-06T12:25:19;6.40;48.00
72604;DHT22;60645;56.968;24.196;2024-03-06T12:27:47;10.10;42.80
72604;DHT22;60645;56.968;24.196;2024-03-06T12:35:09;20.00;32.50
72604;DHT22;60645;56.968;24.196;2024-03-06T12:37:36;20.40;31.90
72604;DHT22;60645;56.968;24.196;2024-03-06T12:40:03;19.70;31.50
72604;DHT22;60645;56.968;24.196;2024-03-06T12:42:31;19.40;31.80
72604;DHT22;60645;56.968;24.196;2024-03-06T12:44:58;20.00;31.50
72604;DHT22;60645;56.968;24.196;2024-03-06T12:47:25;20.90;30.40
72604;DHT22;60645;56.968;24.196;2024-03-06T12:49:52;20.90;30.50
72604;DHT22;60645;56.968;24.196;2024-03-06T12:52:18;21.00;30.00
72604;DHT22;60645;56.968;24.196;2024-03-06T12:54:45;20.10;30.60
72604;DHT22;60645;56.968;24.196;2024-03-06T12:57:12;20.50;30.70
72604;DHT22;60645;56.968;24.196;2024-03-06T12:59:39;20.70;30.80
72604;DHT22;60645;56.968;24.196;2024-03-06T13:02:06;20.30;31.30
72604;DHT22;60645;56.968;24.196;2024-03-06T13:04:34;21.30;30.30
72604;DHT22;60645;56.968;24.196;2024-03-06T13:07:00;22.00;29.90
72604;DHT22;60645;56.968;24.196;2024-03-06T13:09:27;22.70;29.50
72604;DHT22;60645;56.968;24.196;2024-03-06T13:11:54;22.70;29.60
72604;DHT22;60645;56.968;24.196;2024-03-06T13:14:21;21.80;29.90
72604;DHT22;60645;56.968;24.196;2024-03-06T13:16:48;22.00;31.30
72604;DHT22;60645;56.968;24.196;2024-03-06T13:19:15;21.90;31.70
72604;DHT22;60645;56.968;24.196;2024-03-06T13:21:42;21.80;31.90
72604;DHT22;60645;56.968;24.196;2024-03-06T13:24:09;21.90;31.80
72604;DHT22;60645;56.968;24.196;2024-03-06T13:26:35;22.00;31.90
72604;DHT22;60645;56.968;24.196;2024-03-06T13:29:04;21.80;31.90
72604;DHT22;60645;56.968;24.196;2024-03-06T13:31:31;21.80;32.20
72604;DHT22;60645;56.968;24.196;2024-03-06T13:34:00;20.80;32.90
72604;DHT22;60645;56.968;24.196;2024-03-06T13:36:26;19.30;34.00
72604;DHT22;60645;56.968;24.196;2024-03-06T13:38:53;19.40;34.10
72604;DHT22;60645;56.968;24.196;2024-03-06T13:41:20;19.70;33.60
72604;DHT22;60645;56.968;24.196;2024-03-06T13:43:47;19.50;33.70
72604;DHT22;60645;56.968;24.196;2024-03-06T13:46:14;19.40;33.80
72604;DHT22;60645;56.968;24.196;2024-03-06T13:48:41;19.10;34.10
72604;DHT22;60645;56.968;24.196;2024-03-06T13:51:08;19.30;34.00
72604;DHT22;60645;56.968;24.196;2024-03-06T13:53:35;18.90;34.20
72604;DHT22;60645;56.968;24.196;2024-03-06T13:56:02;19.20;34.00
72604;DHT22;60645;56.968;24.196;2024-03-06T13:58:29;18.20;34.50
72604;DHT22;60645;56.968;24.196;2024-03-06T14:00:59;16.00;36.60
72604;DHT22;60645;56.968;24.196;2024-03-06T14:03:26;12.90;39.80
72604;DHT22;60645;56.968;24.196;2024-03-06T14:05:52;10.20;43.60
72604;DHT22;60645;56.968;24.196;2024-03-06T14:08:19;8.30;47.10
72604;DHT22;60645;56.968;24.196;2024-03-06T14:10:46;7.30;49.30
72604;DHT22;60645;56.968;24.196;2024-03-06T14:13:14;6.40;51.30
72604;DHT22;60645;56.968;24.196;2024-03-06T14:15:41;5.90;52.20
72604;DHT22;60645;56.968;24.196;2024-03-06T14:18:08;5.70;52.90
72604;DHT22;60645;56.968;24.196;2024-03-06T14:20:34;5.50;53.50
72604;DHT22;60645;56.968;24.196;2024-03-06T14:23:01;5.30;54.40
72604;DHT22;60645;56.968;24.196;2024-03-06T14:25:28;5.00;54.80
72604;DHT22;60645;56.968;24.196;2024-03-06T14:27:56;5.10;55.30
72604;DHT22;60645;56.968;24.196;2024-03-06T14:30:22;5.00;54.90
72604;DHT22;60645;56.968;24.196;2024-03-06T14:32:49;4.80;55.40
72604;DHT22;60645;56.968;24.196;2024-03-06T14:35:16;4.80;55.50
72604;DHT22;60645;56.968;24.196;2024-03-06T14:37:43;5.00;55.70
72604;DHT22;60645;56.968;24.196;2024-03-06T14:40:10;4.80;56.10
72604;DHT22;60645;56.968;24.196;2024-03-06T14:42:37;4.70;56.60
72604;DHT22;60645;56.968;24.196;2024-03-06T14:45:04;4.70;56.50
72604;DHT22;60645;56.968;24.196;2024-03-06T14:47:32;4.70;56.40
72604;DHT22;60645;56.968;24.196;2024-03-06T14:49:59;4.70;56.60
72604;DHT22;60645;56.968;24.196;2024-03-06T14:52:26;4.50;56.80
72604;DHT22;60645;56.968;24.196;2024-03-06T14:54:53;4.50;56.80
72604;DHT22;60645;56.968;24.196;2024-03-06T14:57:20;4.40;57.20
72604;DHT22;60645;56.968;24.196;2024-03-06T14:59:48;4.40;56.80
72604;DHT22;60645;56.968;24.196;2024-03-06T15:02:16;4.40;57.20
72604;DHT22;60645;56.968;24.196;2024-03-06T15:04:43;4.30;57.40
72604;DHT22;60645;56.968;24.196;2024-03-06T15:07:10;4.30;57.80
72604;DHT22;60645;56.968;24.196;2024-03-06T15:09:37;4.00;58.40
72604;DHT22;60645;56.968;24.196;2024-03-06T15:12:04;4.10;58.90
72604;DHT22;60645;56.968;24.196;2024-03-06T15:14:31;4.00;59.10
72604;DHT22;60645;56.968;24.196;2024-03-06T15:17:08;4.00;59.40
72604;DHT22;60645;56.968;24.196;2024-03-06T15:19:34;3.70;59.70
72604;DHT22;60645;56.968;24.196;2024-03-06T15:22:01;3.70;59.80
72604;DHT22;60645;56.968;24.196;2024-03-06T15:24:30;3.70;60.20
72604;DHT22;60645;56.968;24.196;2024-03-06T15:26:57;3.50;59.80
72604;DHT22;60645;56.968;24.196;2024-03-06T15:29:24;3.50;60.20
72604;DHT22;60645;56.968;24.196;2024-03-06T15:31:51;3.30;60.70
72604;DHT22;60645;56.968;24.196;2024-03-06T15:34:17;3.40;60.90
72604;DHT22;60645;56.968;24.196;2024-03-06T15:36:44;3.20;61.10
72604;DHT22;60645;56.968;24.196;2024-03-06T15:39:11;3.30;61.60
72604;DHT22;60645;56.968;24.196;2024-03-06T15:41:38;3.30;62.20
72604;DHT22;60645;56.968;24.196;2024-03-06T15:44:05;3.00;63.00